sensor_id;sensor_type;location;lat;lon;timestamp;P1;durP1;ratioP1;P2;durP2;ratioP2
7917;SDS011;4004;42.624;23.386;2022-10-22T00:01:25;13.73;;;11.03;;
7917;SDS011;4004;42.624;23.386;2022-10-22T00:03:52;13.33;;;10.87;;
7917;SDS011;4004;42.624;23.386;2022-10-22T00:06:19;12.50;;;11.20;;
7917;SDS011;4004;42.624;23.386;2022-10-22T00:08:46;15.07;;;11.33;;
7917;SDS011;4004;42.624;23.386;2022-10-22T00:11:14;12.10;;;10.57;;
7917;SDS011;4004;42.624;23.386;2022-10-22T00:13:42;12.97;;;11.60;;
7917;SDS011;4004;42.624;23.386;2022-10-22T00:16:09;13.63;;;11.50;;
7917;SDS011;4004;42.624;23.386;2022-10-22T00:18:36;12.43;;;11.00;;
7917;SDS011;4004;42.624;23.386;2022-10-22T00:21:03;12.27;;;10.50;;
7917;SDS011;4004;42.624;23.386;2022-10-22T00:23:31;14.87;;;11.70;;
7917;SDS011;4004;42.624;23.386;2022-10-22T00:25:58;11.87;;;10.17;;
7917;SDS011;4004;42.624;23.386;2022-10-22T00:28:26;12.30;;;10.00;;
7917;SDS011;4004;42.624;23.386;2022-10-22T00:30:56;12.13;;;9.13;;
7917;SDS011;4004;42.624;23.386;2022-10-22T00:33:24;13.83;;;10.30;;
7917;SDS011;4004;42.624;23.386;2022-10-22T00:35:51;11.13;;;9.93;;
7917;SDS011;4004;42.624;23.386;2022-10-22T00:38:18;13.23;;;10.17;;
7917;SDS011;4004;42.624;23.386;2022-10-22T00:40:45;11.80;;;9.80;;
7917;SDS011;4004;42.624;23.386;2022-10-22T00:43:12;10.80;;;9.70;;
7917;SDS011;4004;42.624;23.386;2022-10-22T00:45:42;11.83;;;10.07;;
7917;SDS011;4004;42.624;23.386;2022-10-22T00:48:09;10.53;;;9.43;;
7917;SDS011;4004;42.624;23.386;2022-10-22T00:50:39;11.73;;;9.70;;
7917;SDS011;4004;42.624;23.386;2022-10-22T00:53:09;12.47;;;9.77;;
7917;SDS011;4004;42.624;23.386;2022-10-22T00:55:39;12.43;;;10.53;;
7917;SDS011;4004;42.624;23.386;2022-10-22T00:58:08;18.67;;;11.80;;
7917;SDS011;4004;42.624;23.386;2022-10-22T01:00:36;15.27;;;11.40;;
7917;SDS011;4004;42.624;23.386;2022-10-22T01:03:04;12.50;;;10.70;;
7917;SDS011;4004;42.624;23.386;2022-10-22T01:05:32;12.27;;;10.97;;
7917;SDS011;4004;42.624;23.386;2022-10-22T01:08:06;13.50;;;10.83;;
7917;SDS011;4004;42.624;23.386;2022-10-22T01:10:39;13.43;;;11.13;;
7917;SDS011;4004;42.624;23.386;2022-10-22T01:13:21;14.90;;;9.93;;
7917;SDS011;4004;42.624;23.386;2022-10-22T01:15:59;11.23;;;9.73;;
7917;SDS011;4004;42.624;23.386;2022-10-22T01:18:35;12.10;;;10.77;;
7917;SDS011;4004;42.624;23.386;2022-10-22T01:21:10;13.20;;;10.83;;
7917;SDS011;4004;42.624;23.386;2022-10-22T01:23:50;10.83;;;9.73;;
7917;SDS011;4004;42.624;23.386;2022-10-22T01:26:33;14.17;;;11.20;;
7917;SDS011;4004;42.624;23.386;2022-10-22T01:29:09;13.13;;;11.67;;
7917;SDS011;4004;42.624;23.386;2022-10-22T01:31:40;12.40;;;11.17;;
7917;SDS011;4004;42.624;23.386;2022-10-22T01:34:11;12.03;;;10.43;;
7917;SDS011;4004;42.624;23.386;2022-10-22T01:36:41;11.33;;;10.03;;
7917;SDS011;4004;42.624;23.386;2022-10-22T01:39:09;16.03;;;11.47;;
7917;SDS011;4004;42.624;23.386;2022-10-22T01:41:38;13.43;;;10.33;;
7917;SDS011;4004;42.624;23.386;2022-10-22T01:44:05;11.23;;;10.07;;
7917;SDS011;4004;42.624;23.386;2022-10-22T01:46:34;11.90;;;10.30;;
7917;SDS011;4004;42.624;23.386;2022-10-22T01:49:07;11.63;;;9.73;;
7917;SDS011;4004;42.624;23.386;2022-10-22T01:51:44;11.30;;;10.17;;
7917;SDS011;4004;42.624;23.386;2022-10-22T01:54:21;11.27;;;9.80;;
7917;SDS011;4004;42.624;23.386;2022-10-22T01:56:56;11.73;;;9.93;;
7917;SDS011;4004;42.624;23.386;2022-10-22T01:59:33;14.90;;;11.67;;
7917;SDS011;4004;42.624;23.386;2022-10-22T02:02:12;11.83;;;10.60;;
7917;SDS011;4004;42.624;23.386;2022-10-22T02:04:49;16.90;;;10.90;;
7917;SDS011;4004;42.624;23.386;2022-10-22T02:07:24;14.37;;;10.77;;
7917;SDS011;4004;42.624;23.386;2022-10-22T02:09:55;13.53;;;11.70;;
7917;SDS011;4004;42.624;23.386;2022-10-22T02:12:24;12.93;;;10.80;;
7917;SDS011;4004;42.624;23.386;2022-10-22T02:14:54;15.37;;;11.33;;
7917;SDS011;4004;42.624;23.386;2022-10-22T02:17:23;13.23;;;11.13;;
7917;SDS011;4004;42.624;23.386;2022-10-22T02:19:55;12.63;;;10.83;;
7917;SDS011;4004;42.624;23.386;2022-10-22T02:22:23;15.33;;;11.80;;
7917;SDS011;4004;42.624;23.386;2022-10-22T02:24:52;12.50;;;11.20;;
7917;SDS011;4004;42.624;23.386;2022-10-22T02:27:20;13.57;;;12.07;;
7917;SDS011;4004;42.624;23.386;2022-10-22T02:29:53;13.60;;;12.03;;
7917;SDS011;4004;42.624;23.386;2022-10-22T02:32:27;13.10;;;11.70;;
7917;SDS011;4004;42.624;23.386;2022-10-22T02:34:58;15.97;;;11.53;;
7917;SDS011;4004;42.624;23.386;2022-10-22T02:37:26;14.47;;;11.63;;
7917;SDS011;4004;42.624;23.386;2022-10-22T02:39:54;13.17;;;11.73;;
7917;SDS011;4004;42.624;23.386;2022-10-22T02:42:22;15.00;;;12.27;;
7917;SDS011;4004;42.624;23.386;2022-10-22T02:44:50;13.17;;;11.77;;
7917;SDS011;4004;42.624;23.386;2022-10-22T02:47:17;15.50;;;11.97;;
7917;SDS011;4004;42.624;23.386;2022-10-22T02:49:45;14.83;;;11.77;;
7917;SDS011;4004;42.624;23.386;2022-10-22T02:52:12;15.17;;;11.33;;
7917;SDS011;4004;42.624;23.386;2022-10-22T02:54:39;15.27;;;12.07;;
7917;SDS011;4004;42.624;23.386;2022-10-22T02:57:05;13.30;;;11.17;;
7917;SDS011;4004;42.624;23.386;2022-10-22T02:59:32;14.97;;;11.20;;
7917;SDS011;4004;42.624;23.386;2022-10-22T03:01:59;13.93;;;11.10;;
7917;SDS011;4004;42.624;23.386;2022-10-22T03:04:26;27.43;;;12.60;;
7917;SDS011;4004;42.624;23.386;2022-10-22T03:06:54;21.67;;;11.93;;
7917;SDS011;4004;42.624;23.386;2022-10-22T03:09:21;12.63;;;10.93;;
7917;SDS011;4004;42.624;23.386;2022-10-22T03:11:48;16.37;;;13.00;;
7917;SDS011;4004;42.624;23.386;2022-10-22T03:14:14;12.93;;;11.50;;
7917;SDS011;4004;42.624;23.386;2022-10-22T03:16:41;14.30;;;10.40;;
7917;SDS011;4004;42.624;23.386;2022-10-22T03:19:08;14.30;;;11.63;;
7917;SDS011;4004;42.624;23.386;2022-10-22T03:21:40;12.07;;;10.83;;
7917;SDS011;4004;42.624;23.386;2022-10-22T03:24:11;14.47;;;11.40;;
7917;SDS011;4004;42.624;23.386;2022-10-22T03:26:40;13.93;;;12.13;;
7917;SDS011;4004;42.624;23.386;2022-10-22T03:29:09;13.27;;;11.53;;
7917;SDS011;4004;42.624;23.386;2022-10-22T03:31:38;14.47;;;10.93;;
7917;SDS011;4004;42.624;23.386;2022-10-22T03:34:05;17.70;;;11.20;;
7917;SDS011;4004;42.624;23.386;2022-10-22T03:36:32;12.23;;;10.93;;
7917;SDS011;4004;42.624;23.386;2022-10-22T03:38:59;12.13;;;10.87;;
7917;SDS011;4004;42.624;23.386;2022-10-22T03:41:28;14.30;;;11.50;;
7917;SDS011;4004;42.624;23.386;2022-10-22T03:43:54;13.43;;;11.43;;
7917;SDS011;4004;42.624;23.386;2022-10-22T03:46:22;14.80;;;11.13;;
7917;SDS011;4004;42.624;23.386;2022-10-22T03:48:49;12.30;;;10.23;;
7917;SDS011;4004;42.624;23.386;2022-10-22T03:51:15;13.23;;;11.33;;
7917;SDS011;4004;42.624;23.386;2022-10-22T03:53:42;10.40;;;9.37;;
7917;SDS011;4004;42.624;23.386;2022-10-22T03:56:09;14.07;;;10.80;;
7917;SDS011;4004;42.624;23.386;2022-10-22T03:58:39;12.07;;;10.13;;
7917;SDS011;4004;42.624;23.386;2022-10-22T04:01:06;13.23;;;10.33;;
7917;SDS011;4004;42.624;23.386;2022-10-22T04:03:34;13.63;;;9.97;;
7917;SDS011;4004;42.624;23.386;2022-10-22T04:06:01;14.13;;;10.50;;
7917;SDS011;4004;42.624;23.386;2022-10-22T04:08:28;15.33;;;11.43;;
7917;SDS011;4004;42.624;23.386;2022-10-22T04:10:55;12.90;;;10.10;;
7917;SDS011;4004;42.624;23.386;2022-10-22T04:13:22;13.43;;;10.80;;
7917;SDS011;4004;42.624;23.386;2022-10-22T04:15:50;12.93;;;10.93;;
7917;SDS011;4004;42.624;23.386;2022-10-22T04:18:17;13.30;;;11.23;;
7917;SDS011;4004;42.624;23.386;2022-10-22T04:20:44;12.87;;;10.87;;
7917;SDS011;4004;42.624;23.386;2022-10-22T04:23:11;12.63;;;11.23;;
7917;SDS011;4004;42.624;23.386;2022-10-22T04:25:38;14.93;;;12.20;;
7917;SDS011;4004;42.624;23.386;2022-10-22T04:28:05;13.80;;;12.13;;
7917;SDS011;4004;42.624;23.386;2022-10-22T04:30:32;14.20;;;12.43;;
7917;SDS011;4004;42.624;23.386;2022-10-22T04:33:00;14.10;;;11.83;;
7917;SDS011;4004;42.624;23.386;2022-10-22T04:35:27;12.90;;;11.57;;
7917;SDS011;4004;42.624;23.386;2022-10-22T04:37:54;14.53;;;12.17;;
7917;SDS011;4004;42.624;23.386;2022-10-22T04:40:21;16.57;;;12.63;;
7917;SDS011;4004;42.624;23.386;2022-10-22T04:42:48;15.10;;;12.40;;
7917;SDS011;4004;42.624;23.386;2022-10-22T04:45:14;21.17;;;11.97;;
7917;SDS011;4004;42.624;23.386;2022-10-22T04:47:41;14.23;;;12.37;;
7917;SDS011;4004;42.624;23.386;2022-10-22T04:50:09;14.30;;;11.87;;
7917;SDS011;4004;42.624;23.386;2022-10-22T04:52:36;20.53;;;12.67;;
7917;SDS011;4004;42.624;23.386;2022-10-22T04:55:03;17.47;;;12.87;;
7917;SDS011;4004;42.624;23.386;2022-10-22T04:57:31;14.90;;;12.50;;
7917;SDS011;4004;42.624;23.386;2022-10-22T04:59:57;17.33;;;12.17;;
7917;SDS011;4004;42.624;23.386;2022-10-22T05:02:24;18.13;;;12.67;;
7917;SDS011;4004;42.624;23.386;2022-10-22T05:04:51;11.73;;;10.53;;
7917;SDS011;4004;42.624;23.386;2022-10-22T05:07:19;13.47;;;11.43;;
7917;SDS011;4004;42.624;23.386;2022-10-22T05:09:47;17.87;;;12.33;;
7917;SDS011;4004;42.624;23.386;2022-10-22T05:12:14;15.03;;;11.20;;
7917;SDS011;4004;42.624;23.386;2022-10-22T05:14:41;14.20;;;11.13;;
7917;SDS011;4004;42.624;23.386;2022-10-22T05:17:08;14.37;;;11.40;;
7917;SDS011;4004;42.624;23.386;2022-10-22T05:19:35;15.83;;;11.63;;
7917;SDS011;4004;42.624;23.386;2022-10-22T05:22:02;17.17;;;11.30;;
7917;SDS011;4004;42.624;23.386;2022-10-22T05:24:32;15.27;;;11.63;;
7917;SDS011;4004;42.624;23.386;2022-10-22T05:27:00;16.30;;;12.17;;
7917;SDS011;4004;42.624;23.386;2022-10-22T05:29:27;12.60;;;11.20;;
7917;SDS011;4004;42.624;23.386;2022-10-22T05:31:54;12.67;;;11.07;;
7917;SDS011;4004;42.624;23.386;2022-10-22T05:34:21;18.53;;;11.57;;
7917;SDS011;4004;42.624;23.386;2022-10-22T05:36:48;18.30;;;10.93;;
7917;SDS011;4004;42.624;23.386;2022-10-22T05:39:14;18.43;;;11.80;;
7917;SDS011;4004;42.624;23.386;2022-10-22T05:41:42;27.07;;;12.23;;
7917;SDS011;4004;42.624;23.386;2022-10-22T05:44:09;17.63;;;12.07;;
7917;SDS011;4004;42.624;23.386;2022-10-22T05:46:37;20.17;;;12.20;;
7917;SDS011;4004;42.624;23.386;2022-10-22T05:49:04;16.27;;;11.23;;
7917;SDS011;4004;42.624;23.386;2022-10-22T05:51:32;17.37;;;11.67;;
7917;SDS011;4004;42.624;23.386;2022-10-22T05:54:02;18.00;;;12.03;;
7917;SDS011;4004;42.624;23.386;2022-10-22T05:56:30;27.97;;;13.07;;
7917;SDS011;4004;42.624;23.386;2022-10-22T05:58:59;30.80;;;14.40;;
7917;SDS011;4004;42.624;23.386;2022-10-22T06:01:26;16.43;;;12.10;;
7917;SDS011;4004;42.624;23.386;2022-10-22T06:03:55;23.40;;;12.30;;
7917;SDS011;4004;42.624;23.386;2022-10-22T06:06:26;22.90;;;12.73;;
7917;SDS011;4004;42.624;23.386;2022-10-22T06:08:55;23.40;;;13.13;;
7917;SDS011;4004;42.624;23.386;2022-10-22T06:11:26;22.23;;;12.60;;
7917;SDS011;4004;42.624;23.386;2022-10-22T06:13:53;22.50;;;12.67;;
7917;SDS011;4004;42.624;23.386;2022-10-22T06:16:21;21.20;;;13.77;;
7917;SDS011;4004;42.624;23.386;2022-10-22T06:18:48;38.73;;;15.77;;
7917;SDS011;4004;42.624;23.386;2022-10-22T06:21:15;25.47;;;16.53;;
7917;SDS011;4004;42.624;23.386;2022-10-22T06:23:42;38.07;;;17.00;;
7917;SDS011;4004;42.624;23.386;2022-10-22T06:26:09;22.00;;;15.67;;
7917;SDS011;4004;42.624;23.386;2022-10-22T06:28:36;20.17;;;16.10;;
7917;SDS011;4004;42.624;23.386;2022-10-22T06:31:03;26.37;;;16.83;;
7917;SDS011;4004;42.624;23.386;2022-10-22T06:33:33;27.27;;;16.77;;
7917;SDS011;4004;42.624;23.386;2022-10-22T06:36:06;29.13;;;16.53;;
7917;SDS011;4004;42.624;23.386;2022-10-22T06:38:34;27.37;;;16.47;;
7917;SDS011;4004;42.624;23.386;2022-10-22T06:41:02;23.63;;;17.30;;
7917;SDS011;4004;42.624;23.386;2022-10-22T06:43:29;27.20;;;18.27;;
7917;SDS011;4004;42.624;23.386;2022-10-22T06:45:59;26.57;;;18.77;;
7917;SDS011;4004;42.624;23.386;2022-10-22T06:48:26;30.27;;;20.70;;
7917;SDS011;4004;42.624;23.386;2022-10-22T06:50:55;30.03;;;20.07;;
7917;SDS011;4004;42.624;23.386;2022-10-22T06:53:26;31.73;;;19.53;;
7917;SDS011;4004;42.624;23.386;2022-10-22T06:55:52;25.63;;;18.97;;
7917;SDS011;4004;42.624;23.386;2022-10-22T06:58:19;29.57;;;20.40;;
7917;SDS011;4004;42.624;23.386;2022-10-22T07:00:46;29.20;;;19.23;;
7917;SDS011;4004;42.624;23.386;2022-10-22T07:03:13;30.83;;;19.63;;
7917;SDS011;4004;42.624;23.386;2022-10-22T07:05:40;24.90;;;20.13;;
7917;SDS011;4004;42.624;23.386;2022-10-22T07:08:09;27.53;;;20.60;;
7917;SDS011;4004;42.624;23.386;2022-10-22T07:10:35;27.93;;;19.50;;
7917;SDS011;4004;42.624;23.386;2022-10-22T07:13:02;34.33;;;20.77;;
7917;SDS011;4004;42.624;23.386;2022-10-22T07:15:29;22.07;;;19.60;;
7917;SDS011;4004;42.624;23.386;2022-10-22T07:17:55;25.47;;;17.47;;
7917;SDS011;4004;42.624;23.386;2022-10-22T07:20:22;25.37;;;18.13;;
7917;SDS011;4004;42.624;23.386;2022-10-22T07:22:49;90.83;;;74.17;;
7917;SDS011;4004;42.624;23.386;2022-10-22T07:25:17;33.27;;;23.97;;
7917;SDS011;4004;42.624;23.386;2022-10-22T07:27:44;20.50;;;17.73;;
7917;SDS011;4004;42.624;23.386;2022-10-22T07:30:10;22.03;;;18.43;;
7917;SDS011;4004;42.624;23.386;2022-10-22T07:32:38;22.67;;;18.63;;
7917;SDS011;4004;42.624;23.386;2022-10-22T07:35:05;23.67;;;18.07;;
7917;SDS011;4004;42.624;23.386;2022-10-22T07:37:32;29.33;;;18.47;;
7917;SDS011;4004;42.624;23.386;2022-10-22T07:39:59;30.37;;;19.20;;
7917;SDS011;4004;42.624;23.386;2022-10-22T07:42:27;27.77;;;18.73;;
7917;SDS011;4004;42.624;23.386;2022-10-22T07:44:54;20.50;;;17.97;;
7917;SDS011;4004;42.624;23.386;2022-10-22T07:47:20;24.30;;;18.90;;
7917;SDS011;4004;42.624;23.386;2022-10-22T07:49:47;24.07;;;18.17;;
7917;SDS011;4004;42.624;23.386;2022-10-22T07:52:14;38.27;;;27.87;;
7917;SDS011;4004;42.624;23.386;2022-10-22T07:54:41;30.10;;;21.37;;
7917;SDS011;4004;42.624;23.386;2022-10-22T07:57:07;24.37;;;19.10;;
7917;SDS011;4004;42.624;23.386;2022-10-22T07:59:35;26.93;;;18.90;;
7917;SDS011;4004;42.624;23.386;2022-10-22T08:02:02;26.37;;;17.30;;
7917;SDS011;4004;42.624;23.386;2022-10-22T08:04:29;21.50;;;17.20;;
7917;SDS011;4004;42.624;23.386;2022-10-22T08:06:56;25.30;;;18.57;;
7917;SDS011;4004;42.624;23.386;2022-10-22T08:09:22;24.63;;;18.47;;
7917;SDS011;4004;42.624;23.386;2022-10-22T08:11:49;23.63;;;18.63;;
7917;SDS011;4004;42.624;23.386;2022-10-22T08:14:16;23.37;;;17.97;;
7917;SDS011;4004;42.624;23.386;2022-10-22T08:16:44;25.83;;;18.47;;
7917;SDS011;4004;42.624;23.386;2022-10-22T08:19:11;24.30;;;18.97;;
7917;SDS011;4004;42.624;23.386;2022-10-22T08:21:43;22.70;;;18.57;;
7917;SDS011;4004;42.624;23.386;2022-10-22T08:24:10;20.90;;;18.27;;
7917;SDS011;4004;42.624;23.386;2022-10-22T08:26:37;23.50;;;19.80;;
7917;SDS011;4004;42.624;23.386;2022-10-22T08:29:04;27.60;;;19.33;;
7917;SDS011;4004;42.624;23.386;2022-10-22T08:31:31;25.67;;;18.90;;
7917;SDS011;4004;42.624;23.386;2022-10-22T08:34:00;32.30;;;19.10;;
7917;SDS011;4004;42.624;23.386;2022-10-22T08:36:26;25.57;;;18.20;;
7917;SDS011;4004;42.624;23.386;2022-10-22T08:38:53;24.47;;;17.63;;
7917;SDS011;4004;42.624;23.386;2022-10-22T08:41:21;24.10;;;17.70;;
7917;SDS011;4004;42.624;23.386;2022-10-22T08:46:46;24.93;;;16.83;;
7917;SDS011;4004;42.624;23.386;2022-10-22T08:49:30;25.63;;;17.07;;
7917;SDS011;4004;42.624;23.386;2022-10-22T08:51:59;25.50;;;17.67;;
7917;SDS011;4004;42.624;23.386;2022-10-22T08:54:29;19.90;;;16.60;;
7917;SDS011;4004;42.624;23.386;2022-10-22T08:57:18;20.20;;;16.97;;
7917;SDS011;4004;42.624;23.386;2022-10-22T08:59:59;29.83;;;17.17;;
7917;SDS011;4004;42.624;23.386;2022-10-22T09:02:34;23.10;;;17.90;;
7917;SDS011;4004;42.624;23.386;2022-10-22T09:05:16;21.77;;;16.57;;
7917;SDS011;4004;42.624;23.386;2022-10-22T09:07:53;24.23;;;17.83;;
7917;SDS011;4004;42.624;23.386;2022-10-22T09:10:21;20.00;;;17.53;;
7917;SDS011;4004;42.624;23.386;2022-10-22T09:12:52;24.83;;;16.73;;
7917;SDS011;4004;42.624;23.386;2022-10-22T09:15:19;23.30;;;17.47;;
7917;SDS011;4004;42.624;23.386;2022-10-22T09:17:49;26.10;;;17.43;;
7917;SDS011;4004;42.624;23.386;2022-10-22T09:20:27;23.27;;;17.60;;
7917;SDS011;4004;42.624;23.386;2022-10-22T09:23:04;24.07;;;17.93;;
7917;SDS011;4004;42.624;23.386;2022-10-22T09:25:45;24.83;;;17.10;;
7917;SDS011;4004;42.624;23.386;2022-10-22T09:28:13;25.13;;;17.70;;
7917;SDS011;4004;42.624;23.386;2022-10-22T09:30:40;19.83;;;15.97;;
7917;SDS011;4004;42.624;23.386;2022-10-22T09:33:10;23.17;;;16.40;;
7917;SDS011;4004;42.624;23.386;2022-10-22T09:35:45;23.00;;;16.47;;
7917;SDS011;4004;42.624;23.386;2022-10-22T09:38:18;26.17;;;17.00;;
7917;SDS011;4004;42.624;23.386;2022-10-22T09:40:47;19.83;;;16.03;;
7917;SDS011;4004;42.624;23.386;2022-10-22T09:43:15;18.67;;;16.10;;
7917;SDS011;4004;42.624;23.386;2022-10-22T09:45:42;20.33;;;16.67;;
7917;SDS011;4004;42.624;23.386;2022-10-22T09:48:11;18.17;;;16.27;;
7917;SDS011;4004;42.624;23.386;2022-10-22T09:50:45;19.67;;;16.23;;
7917;SDS011;4004;42.624;23.386;2022-10-22T09:53:17;23.77;;;15.50;;
7917;SDS011;4004;42.624;23.386;2022-10-22T09:55:49;21.07;;;15.87;;
7917;SDS011;4004;42.624;23.386;2022-10-22T09:58:18;18.13;;;15.63;;
7917;SDS011;4004;42.624;23.386;2022-10-22T10:00:49;21.63;;;15.47;;
7917;SDS011;4004;42.624;23.386;2022-10-22T10:03:19;22.97;;;15.37;;
7917;SDS011;4004;42.624;23.386;2022-10-22T10:05:51;17.53;;;14.80;;
7917;SDS011;4004;42.624;23.386;2022-10-22T10:08:19;22.07;;;15.17;;
7917;SDS011;4004;42.624;23.386;2022-10-22T10:10:46;22.50;;;16.47;;
7917;SDS011;4004;42.624;23.386;2022-10-22T10:16:11;20.93;;;15.37;;
7917;SDS011;4004;42.624;23.386;2022-10-22T10:18:53;20.37;;;15.73;;
7917;SDS011;4004;42.624;23.386;2022-10-22T10:21:42;22.30;;;15.50;;
7917;SDS011;4004;42.624;23.386;2022-10-22T10:24:21;20.53;;;15.07;;
7917;SDS011;4004;42.624;23.386;2022-10-22T10:26:53;24.67;;;15.80;;
7917;SDS011;4004;42.624;23.386;2022-10-22T10:29:27;18.77;;;14.30;;
7917;SDS011;4004;42.624;23.386;2022-10-22T10:32:15;18.97;;;15.20;;
7917;SDS011;4004;42.624;23.386;2022-10-22T10:34:55;17.63;;;14.20;;
7917;SDS011;4004;42.624;23.386;2022-10-22T10:37:31;21.97;;;14.70;;
7917;SDS011;4004;42.624;23.386;2022-10-22T10:40:10;20.40;;;14.47;;
7917;SDS011;4004;42.624;23.386;2022-10-22T10:42:45;20.07;;;14.20;;
7917;SDS011;4004;42.624;23.386;2022-10-22T10:45:19;20.73;;;14.73;;
7917;SDS011;4004;42.624;23.386;2022-10-22T10:48:11;21.70;;;14.00;;
7917;SDS011;4004;42.624;23.386;2022-10-22T10:50:51;16.13;;;12.90;;
7917;SDS011;4004;42.624;23.386;2022-10-22T10:53:34;18.27;;;12.93;;
7917;SDS011;4004;42.624;23.386;2022-10-22T10:56:22;14.77;;;12.63;;
7917;SDS011;4004;42.624;23.386;2022-10-22T10:59:00;14.07;;;12.07;;
7917;SDS011;4004;42.624;23.386;2022-10-22T11:01:38;15.57;;;11.50;;
7917;SDS011;4004;42.624;23.386;2022-10-22T11:04:19;21.97;;;12.77;;
7917;SDS011;4004;42.624;23.386;2022-10-22T11:06:59;23.90;;;12.60;;
7917;SDS011;4004;42.624;23.386;2022-10-22T11:09:33;18.33;;;13.00;;
7917;SDS011;4004;42.624;23.386;2022-10-22T11:12:06;19.60;;;12.70;;
7917;SDS011;4004;42.624;23.386;2022-10-22T11:14:40;15.27;;;12.00;;
7917;SDS011;4004;42.624;23.386;2022-10-22T11:17:15;13.30;;;12.00;;
7917;SDS011;4004;42.624;23.386;2022-10-22T11:19:44;16.17;;;11.57;;
7917;SDS011;4004;42.624;23.386;2022-10-22T11:22:18;15.80;;;11.53;;
7917;SDS011;4004;42.624;23.386;2022-10-22T11:24:53;13.50;;;11.80;;
7917;SDS011;4004;42.624;23.386;2022-10-22T11:27:27;17.53;;;11.70;;
7917;SDS011;4004;42.624;23.386;2022-10-22T11:30:02;18.27;;;11.27;;
7917;SDS011;4004;42.624;23.386;2022-10-22T11:32:31;13.33;;;11.40;;
7917;SDS011;4004;42.624;23.386;2022-10-22T11:35:00;12.20;;;10.77;;
7917;SDS011;4004;42.624;23.386;2022-10-22T11:37:30;14.10;;;10.60;;
7917;SDS011;4004;42.624;23.386;2022-10-22T11:40:03;22.33;;;10.57;;
7917;SDS011;4004;42.624;23.386;2022-10-22T11:42:34;17.27;;;11.33;;
7917;SDS011;4004;42.624;23.386;2022-10-22T11:45:04;13.97;;;10.47;;
7917;SDS011;4004;42.624;23.386;2022-10-22T11:47:56;11.23;;;9.93;;
7917;SDS011;4004;42.624;23.386;2022-10-22T11:50:24;21.80;;;9.60;;
7917;SDS011;4004;42.624;23.386;2022-10-22T11:52:54;13.50;;;10.00;;
7917;SDS011;4004;42.624;23.386;2022-10-22T11:55:32;12.40;;;10.27;;
7917;SDS011;4004;42.624;23.386;2022-10-22T11:58:24;15.83;;;9.77;;
7917;SDS011;4004;42.624;23.386;2022-10-22T12:00:53;13.80;;;10.13;;
7917;SDS011;4004;42.624;23.386;2022-10-22T12:03:23;14.87;;;10.50;;
7917;SDS011;4004;42.624;23.386;2022-10-22T12:06:07;13.90;;;9.70;;
7917;SDS011;4004;42.624;23.386;2022-10-22T12:08:45;17.23;;;10.10;;
7917;SDS011;4004;42.624;23.386;2022-10-22T12:11:20;12.57;;;10.07;;
7917;SDS011;4004;42.624;23.386;2022-10-22T12:13:50;10.77;;;9.77;;
7917;SDS011;4004;42.624;23.386;2022-10-22T12:16:23;14.77;;;9.70;;
7917;SDS011;4004;42.624;23.386;2022-10-22T12:18:54;13.67;;;9.20;;
7917;SDS011;4004;42.624;23.386;2022-10-22T12:21:26;13.53;;;10.00;;
7917;SDS011;4004;42.624;23.386;2022-10-22T12:23:53;12.00;;;9.37;;
7917;SDS011;4004;42.624;23.386;2022-10-22T12:26:23;11.60;;;8.97;;
7917;SDS011;4004;42.624;23.386;2022-10-22T12:28:55;14.03;;;9.63;;
7917;SDS011;4004;42.624;23.386;2022-10-22T12:31:23;12.00;;;9.03;;
7917;SDS011;4004;42.624;23.386;2022-10-22T12:33:54;12.03;;;9.07;;
7917;SDS011;4004;42.624;23.386;2022-10-22T12:36:22;10.70;;;8.63;;
7917;SDS011;4004;42.624;23.386;2022-10-22T12:38:51;14.43;;;9.50;;
7917;SDS011;4004;42.624;23.386;2022-10-22T12:41:18;11.93;;;9.00;;
7917;SDS011;4004;42.624;23.386;2022-10-22T12:43:47;11.60;;;9.17;;
7917;SDS011;4004;42.624;23.386;2022-10-22T12:46:14;12.83;;;8.40;;
7917;SDS011;4004;42.624;23.386;2022-10-22T12:48:42;15.90;;;8.97;;
7917;SDS011;4004;42.624;23.386;2022-10-22T12:51:13;10.43;;;8.77;;
7917;SDS011;4004;42.624;23.386;2022-10-22T12:53:44;17.20;;;10.37;;
7917;SDS011;4004;42.624;23.386;2022-10-22T12:56:13;15.97;;;8.60;;
7917;SDS011;4004;42.624;23.386;2022-10-22T12:58:44;18.23;;;8.77;;
7917;SDS011;4004;42.624;23.386;2022-10-22T13:01:14;13.77;;;9.00;;
7917;SDS011;4004;42.624;23.386;2022-10-22T13:03:44;12.20;;;8.53;;
7917;SDS011;4004;42.624;23.386;2022-10-22T13:06:22;10.37;;;9.07;;
7917;SDS011;4004;42.624;23.386;2022-10-22T13:08:54;12.67;;;9.20;;
7917;SDS011;4004;42.624;23.386;2022-10-22T13:11:30;18.23;;;10.47;;
7917;SDS011;4004;42.624;23.386;2022-10-22T13:14:01;15.43;;;9.20;;
7917;SDS011;4004;42.624;23.386;2022-10-22T13:16:29;18.10;;;9.20;;
7917;SDS011;4004;42.624;23.386;2022-10-22T13:18:56;12.73;;;8.87;;
7917;SDS011;4004;42.624;23.386;2022-10-22T13:21:25;13.80;;;8.90;;
7917;SDS011;4004;42.624;23.386;2022-10-22T13:23:54;15.93;;;8.77;;
7917;SDS011;4004;42.624;23.386;2022-10-22T13:26:24;9.80;;;8.80;;
7917;SDS011;4004;42.624;23.386;2022-10-22T13:28:56;15.10;;;9.50;;
7917;SDS011;4004;42.624;23.386;2022-10-22T13:31:27;13.37;;;9.30;;
7917;SDS011;4004;42.624;23.386;2022-10-22T13:33:58;14.43;;;8.43;;
7917;SDS011;4004;42.624;23.386;2022-10-22T13:36:27;13.47;;;8.70;;
7917;SDS011;4004;42.624;23.386;2022-10-22T13:38:54;15.83;;;9.07;;
7917;SDS011;4004;42.624;23.386;2022-10-22T13:41:22;18.40;;;9.40;;
7917;SDS011;4004;42.624;23.386;2022-10-22T13:43:51;13.60;;;8.87;;
7917;SDS011;4004;42.624;23.386;2022-10-22T13:46:18;9.13;;;8.07;;
7917;SDS011;4004;42.624;23.386;2022-10-22T13:48:47;17.03;;;9.53;;
7917;SDS011;4004;42.624;23.386;2022-10-22T13:51:17;11.53;;;8.87;;
7917;SDS011;4004;42.624;23.386;2022-10-22T13:53:46;13.10;;;8.93;;
7917;SDS011;4004;42.624;23.386;2022-10-22T13:56:15;11.77;;;8.80;;
7917;SDS011;4004;42.624;23.386;2022-10-22T13:58:44;10.67;;;7.70;;
7917;SDS011;4004;42.624;23.386;2022-10-22T14:01:15;12.17;;;7.73;;
7917;SDS011;4004;42.624;23.386;2022-10-22T14:03:47;15.37;;;9.93;;
7917;SDS011;4004;42.624;23.386;2022-10-22T14:06:16;10.50;;;7.50;;
7917;SDS011;4004;42.624;23.386;2022-10-22T14:08:45;9.67;;;8.13;;
7917;SDS011;4004;42.624;23.386;2022-10-22T14:11:14;9.70;;;7.87;;
7917;SDS011;4004;42.624;23.386;2022-10-22T14:13:41;14.07;;;8.67;;
7917;SDS011;4004;42.624;23.386;2022-10-22T14:16:11;11.23;;;8.30;;
7917;SDS011;4004;42.624;23.386;2022-10-22T14:18:43;14.37;;;8.70;;
7917;SDS011;4004;42.624;23.386;2022-10-22T14:21:11;11.53;;;7.57;;
7917;SDS011;4004;42.624;23.386;2022-10-22T14:23:40;14.00;;;7.77;;
7917;SDS011;4004;42.624;23.386;2022-10-22T14:26:08;10.83;;;8.13;;
7917;SDS011;4004;42.624;23.386;2022-10-22T14:28:44;10.23;;;7.67;;
7917;SDS011;4004;42.624;23.386;2022-10-22T14:31:11;13.47;;;8.23;;
7917;SDS011;4004;42.624;23.386;2022-10-22T14:33:38;11.03;;;7.93;;
7917;SDS011;4004;42.624;23.386;2022-10-22T14:36:06;13.83;;;8.47;;
7917;SDS011;4004;42.624;23.386;2022-10-22T14:38:35;15.47;;;8.17;;
7917;SDS011;4004;42.624;23.386;2022-10-22T14:41:04;16.10;;;8.50;;
7917;SDS011;4004;42.624;23.386;2022-10-22T14:43:42;12.83;;;7.57;;
7917;SDS011;4004;42.624;23.386;2022-10-22T14:46:09;11.13;;;7.53;;
7917;SDS011;4004;42.624;23.386;2022-10-22T14:48:37;17.07;;;8.07;;
7917;SDS011;4004;42.624;23.386;2022-10-22T14:51:04;13.43;;;8.83;;
7917;SDS011;4004;42.624;23.386;2022-10-22T14:53:31;11.17;;;8.30;;
7917;SDS011;4004;42.624;23.386;2022-10-22T14:55:59;24.83;;;9.00;;
7917;SDS011;4004;42.624;23.386;2022-10-22T14:58:26;13.50;;;8.33;;
7917;SDS011;4004;42.624;23.386;2022-10-22T15:00:53;15.30;;;8.83;;